Latest Weather Observations for Mount Magnet Airport

IDW60801

Issued at 1:05 pm WST Wednesday 23 July 2014 (issued every 30 minutes, with the page automatically refreshed every 10 minutes)

About weather observations | Map of weather stations | Latest weather observations for WA | Other Formats
Station Details ID: 007600 Name: MOUNT MAGNET AERO Lat: -28.12 Lon: 117.84 Height: 407.0 m
Data from the previous 72 hours. | See also: Recent months at Mount Magnet Airport
Date/Time
WST
Temp
°C
App
Temp
°C
Dew
Point
Rel
Hum
%
Delta-T
°C
Wind Press
QNH
hPa
Press
MSL
hPa
Rain
since 9 am
mm
Dir
 
Spd
km/h
Gust
km/h
Spd
kts
Gust
kts
23/01:00pm 14.4 9.9 4.1 50 4.8 W 17 20 9 11 1022.0 1021.7 0.0
23/12:30pm 13.6 9.0 3.7 51 4.6 W 17 24 9 13 1022.3 - 0.0
23/12:00pm 12.4 9.2 4.9 60 3.5 W 11 17 6 9 1022.6 1022.4 0.0
23/11:30am 12.2 8.2 4.9 61 3.4 WSW 15 22 8 12 1023.4 - 0.0
23/11:00am 11.8 7.6 5.9 67 2.8 SW 17 24 9 13 1024.1 1023.9 0.0
23/10:30am 11.3 7.6 6.2 71 2.4 WSW 15 22 8 12 1024.6 - 0.0
23/10:00am 10.3 7.0 6.5 77 1.8 WSW 13 17 7 9 1024.8 1024.6 0.0
23/09:30am 9.3 5.9 6.0 80 1.6 WSW 13 17 7 9 1024.6 - 0.0
23/09:00am 9.0 6.1 6.3 83 1.3 W 11 15 6 8 1024.3 1024.1 0.2
23/08:30am 7.8 4.8 6.1 89 0.8 W 11 13 6 7 1023.8 - 0.2
23/08:00am 6.7 3.3 5.7 93 0.5 WNW 13 15 7 8 1023.7 1023.5 0.2
23/07:30am 5.7 2.5 5.0 95 0.3 W 11 13 6 7 1023.4 - 0.2
23/07:00am 5.1 1.4 4.4 95 0.3 W 13 15 7 8 1022.8 1022.6 0.0
23/06:30am 4.8 1.4 4.1 95 0.3 W 11 11 6 6 1022.2 - 0.0
23/06:00am 4.9 1.9 4.0 94 0.4 W 9 11 5 6 1021.9 1021.6 0.0
23/05:30am 5.2 1.8 4.2 93 0.4 W 11 13 6 7 1022.1 - 0.0
23/05:00am 5.3 2.7 4.1 92 0.5 W 7 11 4 6 1022.2 1022.0 0.0
23/04:30am 5.4 2.8 4.2 92 0.5 W 7 9 4 5 1022.0 - 0.0
23/04:00am 6.0 3.1 4.6 91 0.6 WSW 9 11 5 6 1022.1 1021.8 0.0
23/03:30am 6.3 3.0 4.8 90 0.7 W 11 13 6 7 1022.3 - 0.0
23/03:00am 6.3 3.0 4.6 89 0.8 WSW 11 13 6 7 1022.0 1021.7 0.0
23/02:30am 6.4 3.1 4.7 89 0.8 WSW 11 11 6 6 1021.8 - 0.0
23/02:00am 6.5 4.0 4.5 87 0.9 WSW 7 9 4 5 1021.5 1021.3 0.0
23/01:30am 7.0 4.1 4.8 86 1.0 WSW 9 11 5 6 1021.7 - 0.0
23/01:00am 7.3 4.4 4.6 83 1.2 WSW 9 11 5 6 1021.8 1021.5 0.0
23/12:30am 7.6 4.7 4.7 82 1.3 W 9 11 5 6 1022.0 - 0.0
23/12:00am 8.0 5.1 4.6 79 1.5 WSW 9 11 5 6 1022.1 1021.8 0.0
 
Date/Time
WST
Temp
°C
App
Temp
°C
Dew
Point
Rel
Hum
%
Delta-T
°C
Wind Press
QNH
hPa
Press
MSL
hPa
Rain
since 9 am
mm
Dir
 
Spd
km/h
Gust
km/h
Spd
kts
Gust
kts
22/11:30pm 8.1 5.1 4.3 77 1.7 WSW 9 11 5 6 1022.3 - 0.0
22/11:00pm 8.7 5.7 4.3 74 2.0 WSW 9 13 5 7 1022.4 1022.2 0.0
22/10:30pm 9.2 5.8 4.2 71 2.3 WSW 11 13 6 7 1022.2 - 0.0
22/10:00pm 10.1 6.8 4.5 68 2.6 SW 11 15 6 8 1022.3 1022.1 0.0
22/09:30pm 10.5 7.1 4.2 65 2.9 SW 11 15 6 8 1022.0 - 0.0
22/09:00pm 11.0 6.8 4.0 62 3.2 SW 15 17 8 9 1021.8 1021.5 0.0
22/08:30pm 11.1 8.0 3.4 59 3.5 SW 9 13 5 7 1021.7 - 0.0
22/08:00pm 11.6 8.1 3.4 57 3.7 SW 11 15 6 8 1021.1 1020.9 0.0
22/07:30pm 12.1 8.6 3.3 55 4.0 SW 11 13 6 7 1020.8 - 0.0
22/07:00pm 12.9 8.6 3.0 51 4.5 SW 15 19 8 10 1020.7 1020.5 0.0
22/06:30pm 13.4 9.4 2.6 48 4.9 SW 13 17 7 9 1020.3 - 0.0
22/06:00pm 14.0 8.8 2.6 46 5.2 WSW 19 26 10 14 1019.8 1019.5 0.0
22/05:30pm 14.5 8.3 2.4 44 5.5 WSW 24 30 13 16 1019.7 - 0.0
22/05:00pm 14.6 8.5 2.8 45 5.4 SW 24 32 13 17 1019.4 1019.1 0.0
22/04:30pm 15.1 8.2 2.3 42 5.8 WSW 28 41 15 22 1019.2 - 0.0
22/04:00pm 14.9 7.5 1.8 41 5.9 WSW 30 37 16 20 1018.9 1018.7 0.0
22/03:30pm 15.9 9.0 2.3 40 6.2 WSW 28 41 15 22 1018.7 - 0.0
22/03:00pm 15.4 8.7 3.9 46 5.4 WSW 28 39 15 21 1018.4 1018.2 0.0
22/02:30pm 15.4 7.7 3.5 45 5.6 WSW 33 44 18 24 1018.2 - 0.0
22/02:00pm 15.3 8.0 4.7 49 5.1 WSW 32 44 17 24 1018.2 1018.0 0.0
22/01:30pm 14.3 8.0 5.7 56 4.2 SW 28 41 15 22 1018.3 - 0.0
22/01:00pm 14.2 8.1 6.6 60 3.7 SW 28 41 15 22 1018.4 1018.2 0.0
22/12:43pm 12.9 6.0 8.8 76 2.1 SW 35 54 19 29 1018.5 - 0.0
22/12:30pm 15.3 8.2 5.5 52 4.8 WSW 32 39 17 21 1018.3 - 0.0
22/12:00pm 14.8 7.5 5.3 53 4.6 WSW 33 43 18 23 1018.8 1018.6 0.0
22/11:30am 14.5 7.5 6.1 57 4.1 WSW 32 43 17 23 1019.3 - 0.0
22/11:00am 14.1 7.0 7.9 66 3.1 W 35 54 19 29 1019.2 1018.9 0.0
22/10:54am 13.7 6.9 7.5 66 3.1 WSW 33 54 18 29 1019.2 - 0.0
22/10:30am 12.9 6.9 8.8 76 2.1 W 30 41 16 22 1019.3 - 0.0
22/10:00am 13.0 6.5 8.1 72 2.5 WSW 32 43 17 23 1019.3 1019.0 0.0
22/09:30am 13.4 7.9 7.6 68 2.9 WSW 26 33 14 18 1019.1 - 0.0
22/09:00am 12.5 7.1 7.8 73 2.3 W 26 35 14 19 1018.8 1018.6 0.0
22/08:30am 11.9 7.6 7.8 76 2.0 W 20 28 11 15 1018.6 - 0.0
22/08:00am 10.9 6.8 7.8 81 1.5 W 19 26 10 14 1018.4 1018.2 0.0
22/07:30am 10.3 6.1 7.5 83 1.4 WNW 19 26 10 14 1018.0 - 0.0
22/07:00am 10.1 6.2 7.2 82 1.4 WNW 17 22 9 12 1017.7 1017.4 0.0
22/06:30am 10.8 6.6 7.3 79 1.7 W 19 24 10 13 1017.3 - 0.0
22/06:00am 11.2 7.0 7.5 78 1.8 W 19 24 10 13 1017.2 1016.9 0.0
22/05:30am 11.4 7.3 7.7 78 1.8 W 19 26 10 14 1016.8 - 0.0
22/05:00am 11.1 6.8 7.2 77 1.9 WNW 19 24 10 13 1016.6 1016.3 0.0
22/04:30am 10.0 6.7 6.2 77 1.8 WNW 13 17 7 9 1016.3 - 0.0
22/04:00am 9.4 6.2 5.0 74 2.0 NW 11 13 6 7 1016.1 1015.9 0.0
22/03:30am 9.9 6.3 5.1 72 2.2 NW 13 13 7 7 1016.3 - 0.0
22/03:00am 10.5 7.0 5.3 70 2.4 WNW 13 17 7 9 1016.3 1016.1 0.0
22/02:30am 11.2 6.9 5.1 66 2.9 WNW 17 22 9 12 1016.4 - 0.0
22/02:00am 11.7 6.9 4.4 61 3.4 NW 19 22 10 12 1016.4 1016.2 0.0
22/01:30am 8.3 5.6 3.6 72 2.1 N 7 9 4 5 1016.3 - 0.0
22/01:00am 8.6 5.9 3.8 72 2.1 NNE 7 9 4 5 1016.6 1016.3 0.0
22/12:30am 9.4 6.4 4.2 70 2.3 N 9 9 5 5 1016.7 - 0.0
22/12:00am 10.5 7.6 4.6 67 2.7 N 9 9 5 5 1016.9 1016.6 0.0
 
Date/Time
WST
Temp
°C
App
Temp
°C
Dew
Point
Rel
Hum
%
Delta-T
°C
Wind Press
QNH
hPa
Press
MSL
hPa
Rain
since 9 am
mm
Dir
 
Spd
km/h
Gust
km/h
Spd
kts
Gust
kts
21/11:30pm 10.5 8.2 4.9 68 2.6 NW 6 7 3 4 1017.0 - 0.0
21/11:00pm 11.3 9.0 5.0 65 2.9 W 6 7 3 4 1017.2 1016.9 0.0
21/10:30pm 12.3 10.0 5.5 63 3.2 W 7 9 4 5 1017.4 - 0.0
21/10:00pm 13.0 10.7 5.7 61 3.5 WSW 7 11 4 6 1017.6 1017.3 0.0
21/09:30pm 13.7 11.0 5.6 58 3.9 WSW 9 11 5 6 1017.6 - 0.0
21/09:00pm 14.0 10.9 5.6 57 4.1 SW 11 15 6 8 1017.3 1017.0 0.0
21/08:30pm 14.5 11.3 5.0 53 4.5 WSW 11 13 6 7 1017.3 - 0.0
21/08:00pm 15.6 12.0 4.9 49 5.1 W 13 15 7 8 1017.3 1017.0 0.0
21/07:30pm 16.2 13.3 4.9 47 5.5 WSW 9 11 5 6 1017.1 - 0.0
21/07:00pm 16.8 15.6 4.8 45 5.8 CALM 0 0 0 0 1017.1 1016.8 0.0
21/06:30pm 17.1 15.9 4.8 44 6.0 CALM 0 6 0 3 1016.8 - 0.0
21/06:00pm 17.5 15.0 4.8 43 6.2 NNW 7 9 4 5 1016.3 1016.1 0.0
21/05:30pm 18.0 15.6 5.2 43 6.3 N 7 13 4 7 1016.0 - 0.0
21/05:00pm 18.4 15.6 5.3 42 6.5 NNE 9 13 5 7 1015.9 1015.7 0.0
21/04:30pm 18.3 15.5 5.2 42 6.5 NNW 9 15 5 8 1015.9 - 0.0
21/04:00pm 19.3 17.0 5.7 41 6.8 WNW 7 15 4 8 1015.9 1015.7 0.0
21/03:30pm 18.4 14.9 5.6 43 6.4 NNW 13 17 7 9 1015.9 - 0.0
21/03:00pm 18.1 13.4 5.0 42 6.4 NNW 19 26 10 14 1016.2 1016.0 0.0
21/02:30pm 18.1 14.9 5.3 43 6.3 WNW 11 19 6 10 1016.7 - 0.0
21/02:00pm 18.5 13.7 5.4 42 6.5 N 20 28 11 15 1017.1 1016.8 0.0
21/01:30pm 18.1 15.6 6.6 47 5.8 WNW 9 15 5 8 1017.6 - 0.0
21/01:00pm 16.9 14.4 6.4 50 5.3 W 9 15 5 8 1018.2 1018.0 0.0
21/12:30pm 16.3 11.2 6.2 51 5.0 WNW 22 37 12 20 1018.8 - 0.0
21/12:00pm 15.8 14.1 7.6 58 4.2 S 6 11 3 6 1019.4 1019.1 0.0
21/11:30am 15.2 13.9 7.5 60 3.9 NNE 4 7 2 4 1019.9 - 0.0
21/11:00am 14.6 12.9 7.6 63 3.5 N 6 11 3 6 1020.3 1020.1 0.0
21/10:30am 13.7 12.0 7.7 67 3.0 SSE 6 7 3 4 1020.8 - 0.0
21/10:00am 13.1 11.9 9.5 79 1.9 SE 6 9 3 5 1021.0 1020.8 0.0
21/09:30am 11.5 10.3 10.4 93 0.6 ENE 7 9 4 5 1021.0 - 0.0
21/09:00am 10.5 9.2 9.9 96 0.3 NE 7 9 4 5 1020.9 1020.7 0.2
21/08:30am 10.4 10.4 9.8 96 0.3 CALM 0 0 0 0 1020.7 - 0.2
21/08:00am 9.6 9.0 9.0 96 0.3 WNW 2 7 1 4 1020.6 1020.4 0.2
21/07:30am 9.7 9.5 9.1 96 0.3 CALM 0 0 0 0 1020.4 - 0.0
21/07:00am 9.7 9.1 9.1 96 0.3 S 2 6 1 3 1020.1 1019.9 0.0
21/06:30am 10.1 8.3 9.5 96 0.3 WSW 9 11 5 6 1020.0 - 0.0
21/06:00am 10.2 9.0 9.6 96 0.3 WNW 6 7 3 4 1019.9 1019.6 0.0
21/05:30am 10.0 8.1 9.2 95 0.4 WSW 9 15 5 8 1019.7 - 0.0
21/05:00am 10.4 8.2 9.3 93 0.6 W 11 13 6 7 1019.7 1019.4 0.0
21/04:30am 10.2 8.7 9.1 93 0.6 W 7 9 4 5 1019.6 - 0.0
21/04:00am 10.5 7.9 9.3 92 0.6 W 13 17 7 9 1019.4 1019.1 0.0
21/03:30am 10.9 9.1 9.3 90 0.8 W 9 13 5 7 1019.5 - 0.0
21/03:00am 10.9 9.4 9.3 90 0.8 W 7 9 4 5 1019.4 1019.1 0.0
21/02:30am 11.3 9.5 9.4 88 1.0 W 9 13 5 7 1019.5 - 0.0
21/02:00am 11.6 9.0 9.5 87 1.1 W 13 17 7 9 1019.5 1019.2 0.0
21/01:30am 12.0 9.5 9.7 86 1.2 W 13 19 7 10 1019.7 - 0.0
21/01:00am 12.2 9.7 9.8 85 1.2 W 13 17 7 9 1019.7 1019.4 0.0
21/12:30am 12.2 9.8 9.9 86 1.2 W 13 17 7 9 1019.6 - 0.0
21/12:00am 12.4 10.0 10.0 85 1.3 W 13 17 7 9 1019.6 1019.3 0.0
 
Date/Time
WST
Temp
°C
App
Temp
°C
Dew
Point
Rel
Hum
%
Delta-T
°C
Wind Press
QNH
hPa
Press
MSL
hPa
Rain
since 9 am
mm
Dir
 
Spd
km/h
Gust
km/h
Spd
kts
Gust
kts
20/11:30pm 12.7 9.1 9.9 83 1.5 W 19 24 10 13 1019.8 - 0.0
20/11:00pm 13.2 10.0 10.0 81 1.7 W 17 20 9 11 1020.1 1019.9 0.0
20/10:30pm 13.3 10.5 10.1 81 1.7 W 15 19 8 10 1020.1 - 0.0
20/10:00pm 13.4 10.7 10.2 81 1.7 WNW 15 19 8 10 1020.0 1019.8 0.0
20/09:30pm 13.2 10.8 10.2 82 1.6 W 13 17 7 9 1019.8 - 0.0
20/09:00pm 13.6 11.3 10.4 81 1.7 W 13 17 7 9 1019.7 1019.4 0.0
20/08:30pm 13.7 11.0 10.5 81 1.7 W 15 19 8 10 1019.5 - 0.0
20/08:00pm 13.7 9.7 10.5 81 1.7 WSW 22 35 12 19 1019.4 1019.1 0.0
20/07:30pm 14.4 11.2 10.0 75 2.3 WSW 17 22 9 12 1018.9 - 0.0
20/07:00pm 14.4 12.0 10.2 76 2.2 WSW 13 19 7 10 1018.5 1018.3 0.0
20/06:30pm 15.1 11.9 9.9 71 2.8 W 17 20 9 11 1018.1 - 0.0
20/06:00pm 15.0 9.0 10.0 72 2.7 WSW 32 46 17 25 1017.8 1017.5 0.0
20/05:55pm 15.5 10.1 9.6 68 3.1 WSW 28 46 15 25 1017.6 - 0.0
20/05:30pm 16.5 11.1 8.0 57 4.4 W 26 35 14 19 1017.4 - 0.0
20/05:00pm 17.0 12.0 8.2 56 4.6 W 24 30 13 16 1017.1 1016.8 0.0
20/04:30pm 17.6 12.2 7.9 53 5.0 W 26 35 14 19 1016.9 - 0.0
20/04:00pm 18.0 12.6 8.0 52 5.2 W 26 35 14 19 1016.7 1016.4 0.0
20/03:30pm 18.2 11.6 7.9 51 5.4 W 32 43 17 23 1016.3 - 0.0
20/03:00pm 18.3 12.1 7.7 50 5.5 W 30 41 16 22 1016.2 1016.0 0.0
20/02:30pm 18.3 12.2 6.8 47 5.9 WSW 28 39 15 21 1016.1 - 0.0
20/02:00pm 18.8 11.9 6.6 45 6.2 W 32 41 17 22 1016.1 1015.9 0.0
20/01:30pm 18.6 11.6 6.8 46 6.0 W 33 46 18 25 1016.3 - 0.0

Other Formats:

Comma delimited format used in spreadsheet applications
http://www.bom.gov.au/fwo/IDW60801/IDW60801.94429.axf

JavaScript Object Notation format (JSON) in row-major order
http://www.bom.gov.au/fwo/IDW60801/IDW60801.94429.json